sensor_id;sensor_type;location;lat;lon;timestamp;P1;durP1;ratioP1;P2;durP2;ratioP2
17991;SDS011;9121;50.926;5.340;2022-10-31T00:00:06;36.15;;;18.70;;
17991;SDS011;9121;50.926;5.340;2022-10-31T00:02:34;36.60;;;19.58;;
17991;SDS011;9121;50.926;5.340;2022-10-31T00:05:01;39.97;;;20.60;;
17991;SDS011;9121;50.926;5.340;2022-10-31T00:07:28;35.00;;;19.85;;
17991;SDS011;9121;50.926;5.340;2022-10-31T00:09:55;36.90;;;20.08;;
17991;SDS011;9121;50.926;5.340;2022-10-31T00:12:22;37.72;;;18.92;;
17991;SDS011;9121;50.926;5.340;2022-10-31T00:14:49;40.60;;;20.40;;
17991;SDS011;9121;50.926;5.340;2022-10-31T00:17:17;43.00;;;21.52;;
17991;SDS011;9121;50.926;5.340;2022-10-31T00:19:44;41.72;;;20.38;;
17991;SDS011;9121;50.926;5.340;2022-10-31T00:22:11;43.95;;;21.48;;
17991;SDS011;9121;50.926;5.340;2022-10-31T00:24:38;45.00;;;21.23;;
17991;SDS011;9121;50.926;5.340;2022-10-31T00:27:05;43.08;;;20.75;;
17991;SDS011;9121;50.926;5.340;2022-10-31T00:29:32;41.15;;;20.70;;
17991;SDS011;9121;50.926;5.340;2022-10-31T00:31:59;40.55;;;21.63;;
17991;SDS011;9121;50.926;5.340;2022-10-31T00:34:27;47.83;;;21.60;;
17991;SDS011;9121;50.926;5.340;2022-10-31T00:36:54;37.08;;;20.83;;
17991;SDS011;9121;50.926;5.340;2022-10-31T00:39:21;46.40;;;22.15;;
17991;SDS011;9121;50.926;5.340;2022-10-31T00:41:48;39.33;;;21.00;;
17991;SDS011;9121;50.926;5.340;2022-10-31T00:44:15;47.88;;;22.50;;
17991;SDS011;9121;50.926;5.340;2022-10-31T00:46:42;36.95;;;19.90;;
17991;SDS011;9121;50.926;5.340;2022-10-31T00:49:08;43.55;;;21.67;;
17991;SDS011;9121;50.926;5.340;2022-10-31T00:51:38;40.42;;;20.92;;
17991;SDS011;9121;50.926;5.340;2022-10-31T00:54:05;41.13;;;21.25;;
17991;SDS011;9121;50.926;5.340;2022-10-31T00:56:32;50.33;;;22.60;;
17991;SDS011;9121;50.926;5.340;2022-10-31T00:58:59;47.70;;;21.50;;
17991;SDS011;9121;50.926;5.340;2022-10-31T01:01:26;38.70;;;21.13;;
17991;SDS011;9121;50.926;5.340;2022-10-31T01:03:53;38.60;;;20.60;;
17991;SDS011;9121;50.926;5.340;2022-10-31T01:06:20;39.33;;;21.67;;
17991;SDS011;9121;50.926;5.340;2022-10-31T01:08:48;47.90;;;21.98;;
17991;SDS011;9121;50.926;5.340;2022-10-31T01:11:16;38.85;;;21.45;;
17991;SDS011;9121;50.926;5.340;2022-10-31T01:13:44;42.05;;;21.10;;
17991;SDS011;9121;50.926;5.340;2022-10-31T01:16:13;41.85;;;21.35;;
17991;SDS011;9121;50.926;5.340;2022-10-31T01:18:41;51.72;;;22.17;;
17991;SDS011;9121;50.926;5.340;2022-10-31T01:21:09;40.58;;;21.90;;
17991;SDS011;9121;50.926;5.340;2022-10-31T01:23:38;45.15;;;21.63;;
17991;SDS011;9121;50.926;5.340;2022-10-31T01:26:08;38.78;;;21.85;;
17991;SDS011;9121;50.926;5.340;2022-10-31T01:28:37;37.40;;;22.05;;
17991;SDS011;9121;50.926;5.340;2022-10-31T01:31:06;42.00;;;21.27;;
17991;SDS011;9121;50.926;5.340;2022-10-31T01:33:34;44.83;;;21.95;;
17991;SDS011;9121;50.926;5.340;2022-10-31T01:36:10;41.42;;;22.65;;
17991;SDS011;9121;50.926;5.340;2022-10-31T01:38:38;37.15;;;21.75;;
17991;SDS011;9121;50.926;5.340;2022-10-31T01:41:05;39.75;;;20.88;;
17991;SDS011;9121;50.926;5.340;2022-10-31T01:43:44;47.40;;;22.02;;
17991;SDS011;9121;50.926;5.340;2022-10-31T01:46:13;44.55;;;22.98;;
17991;SDS011;9121;50.926;5.340;2022-10-31T01:48:41;49.13;;;22.75;;
17991;SDS011;9121;50.926;5.340;2022-10-31T01:51:08;41.03;;;22.02;;
17991;SDS011;9121;50.926;5.340;2022-10-31T01:53:39;44.70;;;22.33;;
17991;SDS011;9121;50.926;5.340;2022-10-31T01:56:09;40.47;;;21.90;;
17991;SDS011;9121;50.926;5.340;2022-10-31T01:58:36;41.53;;;22.50;;
17991;SDS011;9121;50.926;5.340;2022-10-31T02:01:03;44.83;;;21.80;;
17991;SDS011;9121;50.926;5.340;2022-10-31T02:03:31;40.38;;;21.48;;
17991;SDS011;9121;50.926;5.340;2022-10-31T02:05:58;46.40;;;20.55;;
17991;SDS011;9121;50.926;5.340;2022-10-31T02:08:26;36.42;;;20.88;;
17991;SDS011;9121;50.926;5.340;2022-10-31T02:10:54;40.63;;;19.85;;
17991;SDS011;9121;50.926;5.340;2022-10-31T02:13:24;43.55;;;20.75;;
17991;SDS011;9121;50.926;5.340;2022-10-31T02:15:52;44.53;;;21.23;;
17991;SDS011;9121;50.926;5.340;2022-10-31T02:18:20;38.00;;;21.40;;
17991;SDS011;9121;50.926;5.340;2022-10-31T02:20:52;48.92;;;21.17;;
17991;SDS011;9121;50.926;5.340;2022-10-31T02:23:32;42.58;;;21.40;;
17991;SDS011;9121;50.926;5.340;2022-10-31T02:26:24;37.10;;;19.52;;
17991;SDS011;9121;50.926;5.340;2022-10-31T02:32:11;36.22;;;19.95;;
17991;SDS011;9121;50.926;5.340;2022-10-31T02:34:48;36.78;;;20.75;;
17991;SDS011;9121;50.926;5.340;2022-10-31T02:37:23;41.85;;;21.05;;
17991;SDS011;9121;50.926;5.340;2022-10-31T02:39:59;46.10;;;21.02;;
17991;SDS011;9121;50.926;5.340;2022-10-31T02:42:32;39.47;;;20.13;;
17991;SDS011;9121;50.926;5.340;2022-10-31T02:45:06;40.92;;;21.98;;
17991;SDS011;9121;50.926;5.340;2022-10-31T02:47:37;40.40;;;20.52;;
17991;SDS011;9121;50.926;5.340;2022-10-31T02:50:06;44.00;;;19.40;;
17991;SDS011;9121;50.926;5.340;2022-10-31T02:52:36;44.60;;;20.92;;
17991;SDS011;9121;50.926;5.340;2022-10-31T02:55:10;41.03;;;20.02;;
17991;SDS011;9121;50.926;5.340;2022-10-31T02:57:39;37.70;;;20.13;;
17991;SDS011;9121;50.926;5.340;2022-10-31T03:00:08;39.03;;;19.55;;
17991;SDS011;9121;50.926;5.340;2022-10-31T03:02:45;37.35;;;19.17;;
17991;SDS011;9121;50.926;5.340;2022-10-31T03:05:41;40.13;;;20.30;;
17991;SDS011;9121;50.926;5.340;2022-10-31T03:08:20;39.33;;;20.15;;
17991;SDS011;9121;50.926;5.340;2022-10-31T03:10:52;40.08;;;20.52;;
17991;SDS011;9121;50.926;5.340;2022-10-31T03:13:24;39.13;;;19.23;;
17991;SDS011;9121;50.926;5.340;2022-10-31T03:16:00;42.75;;;20.67;;
17991;SDS011;9121;50.926;5.340;2022-10-31T03:18:36;36.00;;;19.30;;
17991;SDS011;9121;50.926;5.340;2022-10-31T03:21:07;40.22;;;20.30;;
17991;SDS011;9121;50.926;5.340;2022-10-31T03:23:38;39.35;;;19.70;;
17991;SDS011;9121;50.926;5.340;2022-10-31T03:26:06;39.15;;;20.08;;
17991;SDS011;9121;50.926;5.340;2022-10-31T03:28:36;38.05;;;19.58;;
17991;SDS011;9121;50.926;5.340;2022-10-31T03:31:09;38.88;;;20.05;;
17991;SDS011;9121;50.926;5.340;2022-10-31T03:33:41;40.88;;;19.88;;
17991;SDS011;9121;50.926;5.340;2022-10-31T03:36:10;39.60;;;20.45;;
17991;SDS011;9121;50.926;5.340;2022-10-31T03:38:40;43.25;;;20.80;;
17991;SDS011;9121;50.926;5.340;2022-10-31T03:41:10;41.50;;;21.25;;
17991;SDS011;9121;50.926;5.340;2022-10-31T03:43:41;37.55;;;20.92;;
17991;SDS011;9121;50.926;5.340;2022-10-31T03:46:12;40.08;;;21.83;;
17991;SDS011;9121;50.926;5.340;2022-10-31T03:48:41;40.42;;;20.42;;
17991;SDS011;9121;50.926;5.340;2022-10-31T03:51:09;41.92;;;21.38;;
17991;SDS011;9121;50.926;5.340;2022-10-31T03:53:41;37.70;;;20.50;;
17991;SDS011;9121;50.926;5.340;2022-10-31T03:56:15;42.45;;;21.73;;
17991;SDS011;9121;50.926;5.340;2022-10-31T03:58:47;33.83;;;19.38;;
17991;SDS011;9121;50.926;5.340;2022-10-31T04:01:19;38.45;;;20.20;;
17991;SDS011;9121;50.926;5.340;2022-10-31T04:03:49;36.15;;;20.05;;
17991;SDS011;9121;50.926;5.340;2022-10-31T04:06:17;36.60;;;19.40;;
17991;SDS011;9121;50.926;5.340;2022-10-31T04:08:48;36.95;;;19.58;;
17991;SDS011;9121;50.926;5.340;2022-10-31T04:11:17;43.05;;;19.08;;
17991;SDS011;9121;50.926;5.340;2022-10-31T04:13:48;38.63;;;19.42;;
17991;SDS011;9121;50.926;5.340;2022-10-31T04:16:15;41.53;;;19.38;;
17991;SDS011;9121;50.926;5.340;2022-10-31T04:18:43;44.70;;;19.98;;
17991;SDS011;9121;50.926;5.340;2022-10-31T04:21:12;47.78;;;20.35;;
17991;SDS011;9121;50.926;5.340;2022-10-31T04:23:39;38.40;;;21.38;;
17991;SDS011;9121;50.926;5.340;2022-10-31T04:26:06;44.38;;;21.38;;
17991;SDS011;9121;50.926;5.340;2022-10-31T04:28:34;45.78;;;22.95;;
17991;SDS011;9121;50.926;5.340;2022-10-31T04:31:01;44.28;;;22.52;;
17991;SDS011;9121;50.926;5.340;2022-10-31T04:33:28;41.45;;;23.25;;
17991;SDS011;9121;50.926;5.340;2022-10-31T04:35:55;40.42;;;22.40;;
17991;SDS011;9121;50.926;5.340;2022-10-31T04:38:23;41.50;;;20.88;;
17991;SDS011;9121;50.926;5.340;2022-10-31T04:40:50;44.92;;;24.38;;
17991;SDS011;9121;50.926;5.340;2022-10-31T04:43:17;43.17;;;23.80;;
17991;SDS011;9121;50.926;5.340;2022-10-31T04:45:44;47.63;;;23.58;;
17991;SDS011;9121;50.926;5.340;2022-10-31T04:48:11;51.58;;;24.30;;
17991;SDS011;9121;50.926;5.340;2022-10-31T04:50:38;60.40;;;25.45;;
17991;SDS011;9121;50.926;5.340;2022-10-31T04:53:05;56.13;;;24.13;;
17991;SDS011;9121;50.926;5.340;2022-10-31T04:55:33;48.72;;;24.15;;
17991;SDS011;9121;50.926;5.340;2022-10-31T04:58:01;50.33;;;25.08;;
17991;SDS011;9121;50.926;5.340;2022-10-31T05:00:28;45.38;;;24.33;;
17991;SDS011;9121;50.926;5.340;2022-10-31T05:02:56;44.55;;;23.42;;
17991;SDS011;9121;50.926;5.340;2022-10-31T05:05:24;44.40;;;23.30;;
17991;SDS011;9121;50.926;5.340;2022-10-31T05:07:52;46.83;;;24.17;;
17991;SDS011;9121;50.926;5.340;2022-10-31T05:10:20;41.85;;;22.98;;
17991;SDS011;9121;50.926;5.340;2022-10-31T05:12:51;43.70;;;21.73;;
17991;SDS011;9121;50.926;5.340;2022-10-31T05:15:20;40.40;;;22.17;;
17991;SDS011;9121;50.926;5.340;2022-10-31T05:17:49;39.80;;;21.80;;
17991;SDS011;9121;50.926;5.340;2022-10-31T05:20:17;41.97;;;22.10;;
17991;SDS011;9121;50.926;5.340;2022-10-31T05:22:45;41.70;;;21.60;;
17991;SDS011;9121;50.926;5.340;2022-10-31T05:25:13;44.77;;;21.23;;
17991;SDS011;9121;50.926;5.340;2022-10-31T05:27:41;39.50;;;20.87;;
17991;SDS011;9121;50.926;5.340;2022-10-31T05:30:11;115.10;;;30.03;;
17991;SDS011;9121;50.926;5.340;2022-10-31T05:32:41;42.25;;;22.40;;
17991;SDS011;9121;50.926;5.340;2022-10-31T05:35:10;42.78;;;24.13;;
17991;SDS011;9121;50.926;5.340;2022-10-31T05:37:38;45.55;;;25.30;;
17991;SDS011;9121;50.926;5.340;2022-10-31T05:40:06;54.92;;;25.38;;
17991;SDS011;9121;50.926;5.340;2022-10-31T05:42:35;47.25;;;24.83;;
17991;SDS011;9121;50.926;5.340;2022-10-31T05:45:04;62.03;;;24.93;;
17991;SDS011;9121;50.926;5.340;2022-10-31T05:47:34;46.73;;;23.00;;
17991;SDS011;9121;50.926;5.340;2022-10-31T05:50:01;43.78;;;21.70;;
17991;SDS011;9121;50.926;5.340;2022-10-31T05:52:28;43.70;;;21.63;;
17991;SDS011;9121;50.926;5.340;2022-10-31T05:54:55;39.08;;;22.08;;
17991;SDS011;9121;50.926;5.340;2022-10-31T05:57:22;52.15;;;21.75;;
17991;SDS011;9121;50.926;5.340;2022-10-31T05:59:49;41.28;;;21.20;;
17991;SDS011;9121;50.926;5.340;2022-10-31T06:02:17;38.95;;;21.55;;
17991;SDS011;9121;50.926;5.340;2022-10-31T06:04:46;44.55;;;22.77;;
17991;SDS011;9121;50.926;5.340;2022-10-31T06:07:13;53.30;;;22.45;;
17991;SDS011;9121;50.926;5.340;2022-10-31T06:09:40;46.33;;;22.33;;
17991;SDS011;9121;50.926;5.340;2022-10-31T06:12:07;41.50;;;21.40;;
17991;SDS011;9121;50.926;5.340;2022-10-31T06:14:34;38.55;;;20.17;;
17991;SDS011;9121;50.926;5.340;2022-10-31T06:17:01;40.78;;;21.00;;
17991;SDS011;9121;50.926;5.340;2022-10-31T06:19:28;40.33;;;21.20;;
17991;SDS011;9121;50.926;5.340;2022-10-31T06:21:56;36.30;;;19.92;;
17991;SDS011;9121;50.926;5.340;2022-10-31T06:24:23;39.20;;;18.90;;
17991;SDS011;9121;50.926;5.340;2022-10-31T06:26:50;40.38;;;19.90;;
17991;SDS011;9121;50.926;5.340;2022-10-31T06:29:17;41.95;;;19.50;;
17991;SDS011;9121;50.926;5.340;2022-10-31T06:31:44;38.15;;;17.60;;
17991;SDS011;9121;50.926;5.340;2022-10-31T06:34:11;56.40;;;18.30;;
17991;SDS011;9121;50.926;5.340;2022-10-31T06:36:38;52.63;;;19.50;;
17991;SDS011;9121;50.926;5.340;2022-10-31T06:39:06;38.75;;;18.60;;
17991;SDS011;9121;50.926;5.340;2022-10-31T06:41:33;58.33;;;19.70;;
17991;SDS011;9121;50.926;5.340;2022-10-31T06:44:01;141.83;;;24.67;;
17991;SDS011;9121;50.926;5.340;2022-10-31T06:46:28;65.65;;;19.38;;
17991;SDS011;9121;50.926;5.340;2022-10-31T06:48:55;39.07;;;17.93;;
17991;SDS011;9121;50.926;5.340;2022-10-31T06:51:22;41.63;;;17.45;;
17991;SDS011;9121;50.926;5.340;2022-10-31T06:53:49;34.78;;;16.83;;
17991;SDS011;9121;50.926;5.340;2022-10-31T06:56:18;33.42;;;16.73;;
17991;SDS011;9121;50.926;5.340;2022-10-31T06:58:45;34.45;;;17.48;;
17991;SDS011;9121;50.926;5.340;2022-10-31T07:01:12;35.92;;;16.58;;
17991;SDS011;9121;50.926;5.340;2022-10-31T07:03:39;34.70;;;16.58;;
17991;SDS011;9121;50.926;5.340;2022-10-31T07:06:06;33.67;;;16.67;;
17991;SDS011;9121;50.926;5.340;2022-10-31T07:08:33;31.13;;;16.70;;
17991;SDS011;9121;50.926;5.340;2022-10-31T07:11:00;37.80;;;16.20;;
17991;SDS011;9121;50.926;5.340;2022-10-31T07:13:29;42.15;;;17.00;;
17991;SDS011;9121;50.926;5.340;2022-10-31T07:15:59;36.13;;;17.25;;
17991;SDS011;9121;50.926;5.340;2022-10-31T07:18:27;33.85;;;16.50;;
17991;SDS011;9121;50.926;5.340;2022-10-31T07:20:54;37.08;;;15.57;;
17991;SDS011;9121;50.926;5.340;2022-10-31T07:23:21;30.98;;;16.38;;
17991;SDS011;9121;50.926;5.340;2022-10-31T07:25:48;31.77;;;16.17;;
17991;SDS011;9121;50.926;5.340;2022-10-31T07:28:20;31.80;;;16.60;;
17991;SDS011;9121;50.926;5.340;2022-10-31T07:30:50;30.50;;;15.68;;
17991;SDS011;9121;50.926;5.340;2022-10-31T07:33:18;33.75;;;16.13;;
17991;SDS011;9121;50.926;5.340;2022-10-31T07:35:46;39.08;;;16.40;;
17991;SDS011;9121;50.926;5.340;2022-10-31T07:38:13;85.55;;;17.67;;
17991;SDS011;9121;50.926;5.340;2022-10-31T07:40:41;39.15;;;16.27;;
17991;SDS011;9121;50.926;5.340;2022-10-31T07:43:09;36.28;;;15.75;;
17991;SDS011;9121;50.926;5.340;2022-10-31T07:45:37;30.25;;;16.92;;
17991;SDS011;9121;50.926;5.340;2022-10-31T07:48:06;39.63;;;17.15;;
17991;SDS011;9121;50.926;5.340;2022-10-31T07:50:33;35.47;;;16.50;;
17991;SDS011;9121;50.926;5.340;2022-10-31T07:53:00;34.90;;;16.67;;
17991;SDS011;9121;50.926;5.340;2022-10-31T07:55:31;48.85;;;17.33;;
17991;SDS011;9121;50.926;5.340;2022-10-31T07:57:59;37.05;;;16.77;;
17991;SDS011;9121;50.926;5.340;2022-10-31T08:00:27;38.25;;;18.35;;
17991;SDS011;9121;50.926;5.340;2022-10-31T08:02:57;37.05;;;17.85;;
17991;SDS011;9121;50.926;5.340;2022-10-31T08:05:26;41.80;;;17.48;;
17991;SDS011;9121;50.926;5.340;2022-10-31T08:07:53;38.25;;;19.40;;
17991;SDS011;9121;50.926;5.340;2022-10-31T08:10:21;44.10;;;18.58;;
17991;SDS011;9121;50.926;5.340;2022-10-31T08:12:54;43.13;;;18.23;;
17991;SDS011;9121;50.926;5.340;2022-10-31T08:15:21;49.55;;;19.10;;
17991;SDS011;9121;50.926;5.340;2022-10-31T08:17:48;67.38;;;18.63;;
17991;SDS011;9121;50.926;5.340;2022-10-31T08:20:15;49.53;;;17.05;;
17991;SDS011;9121;50.926;5.340;2022-10-31T08:22:44;40.50;;;17.02;;
17991;SDS011;9121;50.926;5.340;2022-10-31T08:25:22;43.80;;;18.92;;
17991;SDS011;9121;50.926;5.340;2022-10-31T08:27:50;33.00;;;17.98;;
17991;SDS011;9121;50.926;5.340;2022-10-31T08:30:18;43.90;;;17.65;;
17991;SDS011;9121;50.926;5.340;2022-10-31T08:32:45;45.88;;;17.42;;
17991;SDS011;9121;50.926;5.340;2022-10-31T08:35:13;41.92;;;17.85;;
17991;SDS011;9121;50.926;5.340;2022-10-31T08:37:41;37.42;;;18.60;;
17991;SDS011;9121;50.926;5.340;2022-10-31T08:40:10;39.05;;;18.05;;
17991;SDS011;9121;50.926;5.340;2022-10-31T08:42:38;60.22;;;19.38;;
17991;SDS011;9121;50.926;5.340;2022-10-31T08:45:05;40.15;;;19.05;;
17991;SDS011;9121;50.926;5.340;2022-10-31T08:47:32;51.60;;;20.05;;
17991;SDS011;9121;50.926;5.340;2022-10-31T08:49:59;39.08;;;18.75;;
17991;SDS011;9121;50.926;5.340;2022-10-31T08:52:26;56.83;;;21.05;;
17991;SDS011;9121;50.926;5.340;2022-10-31T08:54:53;50.13;;;19.48;;
17991;SDS011;9121;50.926;5.340;2022-10-31T08:57:23;59.43;;;21.40;;
17991;SDS011;9121;50.926;5.340;2022-10-31T08:59:50;45.83;;;21.10;;
17991;SDS011;9121;50.926;5.340;2022-10-31T09:02:17;58.17;;;23.00;;
17991;SDS011;9121;50.926;5.340;2022-10-31T09:04:44;44.85;;;22.38;;
17991;SDS011;9121;50.926;5.340;2022-10-31T09:07:11;58.55;;;22.55;;
17991;SDS011;9121;50.926;5.340;2022-10-31T09:09:38;53.78;;;21.80;;
17991;SDS011;9121;50.926;5.340;2022-10-31T09:12:05;51.45;;;23.17;;
17991;SDS011;9121;50.926;5.340;2022-10-31T09:14:33;45.50;;;22.35;;
17991;SDS011;9121;50.926;5.340;2022-10-31T09:17:00;59.33;;;22.33;;
17991;SDS011;9121;50.926;5.340;2022-10-31T09:19:27;53.08;;;22.70;;
17991;SDS011;9121;50.926;5.340;2022-10-31T09:21:54;42.58;;;21.23;;
17991;SDS011;9121;50.926;5.340;2022-10-31T09:24:21;47.15;;;22.15;;
17991;SDS011;9121;50.926;5.340;2022-10-31T09:26:48;49.40;;;21.73;;
17991;SDS011;9121;50.926;5.340;2022-10-31T09:29:15;40.22;;;19.95;;
17991;SDS011;9121;50.926;5.340;2022-10-31T09:31:43;43.92;;;20.98;;
17991;SDS011;9121;50.926;5.340;2022-10-31T09:34:10;41.47;;;20.88;;
17991;SDS011;9121;50.926;5.340;2022-10-31T09:36:37;59.05;;;22.95;;
17991;SDS011;9121;50.926;5.340;2022-10-31T09:39:05;58.60;;;22.08;;
17991;SDS011;9121;50.926;5.340;2022-10-31T09:41:36;42.88;;;21.50;;
17991;SDS011;9121;50.926;5.340;2022-10-31T09:44:18;47.40;;;20.80;;
17991;SDS011;9121;50.926;5.340;2022-10-31T09:46:55;51.55;;;20.55;;
17991;SDS011;9121;50.926;5.340;2022-10-31T09:49:41;47.00;;;22.02;;
17991;SDS011;9121;50.926;5.340;2022-10-31T09:52:20;50.28;;;22.73;;
17991;SDS011;9121;50.926;5.340;2022-10-31T09:54:51;46.83;;;20.73;;
17991;SDS011;9121;50.926;5.340;2022-10-31T09:57:24;40.67;;;20.33;;
17991;SDS011;9121;50.926;5.340;2022-10-31T09:59:55;49.70;;;19.42;;
17991;SDS011;9121;50.926;5.340;2022-10-31T10:02:25;51.72;;;20.02;;
17991;SDS011;9121;50.926;5.340;2022-10-31T10:04:57;38.92;;;19.42;;
17991;SDS011;9121;50.926;5.340;2022-10-31T10:07:30;46.83;;;20.33;;
17991;SDS011;9121;50.926;5.340;2022-10-31T10:10:11;40.60;;;18.73;;
17991;SDS011;9121;50.926;5.340;2022-10-31T10:12:58;40.63;;;20.05;;
17991;SDS011;9121;50.926;5.340;2022-10-31T10:15:57;53.70;;;20.27;;
17991;SDS011;9121;50.926;5.340;2022-10-31T10:18:37;44.10;;;19.42;;
17991;SDS011;9121;50.926;5.340;2022-10-31T10:21:16;44.45;;;18.95;;
17991;SDS011;9121;50.926;5.340;2022-10-31T10:23:55;43.92;;;20.38;;
17991;SDS011;9121;50.926;5.340;2022-10-31T10:26:29;40.20;;;19.90;;
17991;SDS011;9121;50.926;5.340;2022-10-31T10:29:02;42.00;;;19.63;;
17991;SDS011;9121;50.926;5.340;2022-10-31T10:31:38;47.33;;;19.75;;
17991;SDS011;9121;50.926;5.340;2022-10-31T10:34:13;82.78;;;20.60;;
17991;SDS011;9121;50.926;5.340;2022-10-31T10:36:47;44.35;;;19.17;;
17991;SDS011;9121;50.926;5.340;2022-10-31T10:39:18;40.22;;;18.25;;
17991;SDS011;9121;50.926;5.340;2022-10-31T10:41:49;37.60;;;18.90;;
17991;SDS011;9121;50.926;5.340;2022-10-31T10:44:34;43.42;;;17.95;;
17991;SDS011;9121;50.926;5.340;2022-10-31T10:47:22;46.63;;;18.90;;
17991;SDS011;9121;50.926;5.340;2022-10-31T10:50:08;40.80;;;17.95;;
17991;SDS011;9121;50.926;5.340;2022-10-31T10:52:41;38.72;;;17.42;;
17991;SDS011;9121;50.926;5.340;2022-10-31T10:55:16;44.75;;;18.05;;
17991;SDS011;9121;50.926;5.340;2022-10-31T10:57:55;43.15;;;17.63;;
17991;SDS011;9121;50.926;5.340;2022-10-31T11:00:26;40.95;;;16.90;;
17991;SDS011;9121;50.926;5.340;2022-10-31T11:02:55;38.17;;;17.70;;
17991;SDS011;9121;50.926;5.340;2022-10-31T11:05:25;42.85;;;18.02;;
17991;SDS011;9121;50.926;5.340;2022-10-31T11:07:59;37.95;;;17.20;;
17991;SDS011;9121;50.926;5.340;2022-10-31T11:10:26;36.47;;;16.85;;
17991;SDS011;9121;50.926;5.340;2022-10-31T11:13:00;36.03;;;16.30;;
17991;SDS011;9121;50.926;5.340;2022-10-31T11:15:35;45.38;;;17.02;;
17991;SDS011;9121;50.926;5.340;2022-10-31T11:18:04;36.08;;;15.70;;
17991;SDS011;9121;50.926;5.340;2022-10-31T11:20:33;33.08;;;15.85;;
17991;SDS011;9121;50.926;5.340;2022-10-31T11:23:03;30.48;;;15.65;;
17991;SDS011;9121;50.926;5.340;2022-10-31T11:25:47;38.22;;;14.25;;
17991;SDS011;9121;50.926;5.340;2022-10-31T11:28:15;32.45;;;14.90;;
17991;SDS011;9121;50.926;5.340;2022-10-31T11:30:43;35.83;;;14.55;;
17991;SDS011;9121;50.926;5.340;2022-10-31T11:33:14;31.02;;;14.30;;
17991;SDS011;9121;50.926;5.340;2022-10-31T11:35:46;35.45;;;13.95;;
17991;SDS011;9121;50.926;5.340;2022-10-31T11:38:15;30.73;;;13.38;;
17991;SDS011;9121;50.926;5.340;2022-10-31T11:40:52;70.05;;;14.98;;
17991;SDS011;9121;50.926;5.340;2022-10-31T11:43:21;29.35;;;13.32;;
17991;SDS011;9121;50.926;5.340;2022-10-31T11:45:49;24.85;;;13.23;;
17991;SDS011;9121;50.926;5.340;2022-10-31T11:48:17;30.30;;;13.10;;
17991;SDS011;9121;50.926;5.340;2022-10-31T11:50:51;28.50;;;12.88;;
17991;SDS011;9121;50.926;5.340;2022-10-31T11:53:22;24.10;;;12.25;;
17991;SDS011;9121;50.926;5.340;2022-10-31T11:56:04;30.85;;;13.00;;
17991;SDS011;9121;50.926;5.340;2022-10-31T11:58:36;30.10;;;11.70;;
17991;SDS011;9121;50.926;5.340;2022-10-31T12:01:03;37.22;;;12.38;;
17991;SDS011;9121;50.926;5.340;2022-10-31T12:03:40;43.65;;;13.40;;
17991;SDS011;9121;50.926;5.340;2022-10-31T12:06:16;32.70;;;12.65;;
17991;SDS011;9121;50.926;5.340;2022-10-31T12:08:47;37.92;;;12.88;;
17991;SDS011;9121;50.926;5.340;2022-10-31T12:11:22;27.42;;;11.20;;
17991;SDS011;9121;50.926;5.340;2022-10-31T12:14:02;29.20;;;11.50;;
17991;SDS011;9121;50.926;5.340;2022-10-31T12:16:38;53.22;;;12.70;;
17991;SDS011;9121;50.926;5.340;2022-10-31T12:19:14;35.50;;;12.00;;
17991;SDS011;9121;50.926;5.340;2022-10-31T12:21:52;27.20;;;12.52;;
17991;SDS011;9121;50.926;5.340;2022-10-31T12:24:40;30.08;;;11.27;;
17991;SDS011;9121;50.926;5.340;2022-10-31T12:27:17;32.15;;;12.05;;
17991;SDS011;9121;50.926;5.340;2022-10-31T12:30:01;53.13;;;12.57;;
17991;SDS011;9121;50.926;5.340;2022-10-31T12:32:40;29.00;;;11.50;;
17991;SDS011;9121;50.926;5.340;2022-10-31T12:35:21;28.17;;;10.68;;
17991;SDS011;9121;50.926;5.340;2022-10-31T12:38:05;25.35;;;10.90;;
17991;SDS011;9121;50.926;5.340;2022-10-31T12:41:03;24.38;;;11.18;;
17991;SDS011;9121;50.926;5.340;2022-10-31T12:43:43;49.90;;;12.70;;
17991;SDS011;9121;50.926;5.340;2022-10-31T12:46:17;31.15;;;10.30;;
17991;SDS011;9121;50.926;5.340;2022-10-31T12:49:02;25.60;;;9.65;;
17991;SDS011;9121;50.926;5.340;2022-10-31T12:51:55;27.70;;;10.80;;
17991;SDS011;9121;50.926;5.340;2022-10-31T12:54:39;28.80;;;11.20;;
17991;SDS011;9121;50.926;5.340;2022-10-31T12:57:21;26.73;;;10.43;;
17991;SDS011;9121;50.926;5.340;2022-10-31T12:59:56;23.95;;;10.60;;
17991;SDS011;9121;50.926;5.340;2022-10-31T13:02:26;28.27;;;10.80;;
17991;SDS011;9121;50.926;5.340;2022-10-31T13:04:58;25.90;;;11.02;;
17991;SDS011;9121;50.926;5.340;2022-10-31T13:07:31;32.58;;;10.68;;
17991;SDS011;9121;50.926;5.340;2022-10-31T13:10:05;34.03;;;10.75;;
17991;SDS011;9121;50.926;5.340;2022-10-31T13:12:42;25.83;;;10.40;;
17991;SDS011;9121;50.926;5.340;2022-10-31T13:15:15;25.25;;;11.50;;
17991;SDS011;9121;50.926;5.340;2022-10-31T13:17:45;27.33;;;9.70;;
17991;SDS011;9121;50.926;5.340;2022-10-31T13:20:17;24.05;;;10.32;;
17991;SDS011;9121;50.926;5.340;2022-10-31T13:22:49;25.23;;;10.95;;
17991;SDS011;9121;50.926;5.340;2022-10-31T13:25:21;31.38;;;12.00;;
17991;SDS011;9121;50.926;5.340;2022-10-31T13:27:52;25.55;;;11.40;;
17991;SDS011;9121;50.926;5.340;2022-10-31T13:30:23;25.90;;;10.77;;
17991;SDS011;9121;50.926;5.340;2022-10-31T13:32:52;29.25;;;11.60;;
17991;SDS011;9121;50.926;5.340;2022-10-31T13:35:26;25.00;;;10.95;;
17991;SDS011;9121;50.926;5.340;2022-10-31T13:38:05;27.92;;;11.65;;
17991;SDS011;9121;50.926;5.340;2022-10-31T13:40:44;22.48;;;10.48;;
17991;SDS011;9121;50.926;5.340;2022-10-31T13:43:19;33.72;;;11.73;;
17991;SDS011;9121;50.926;5.340;2022-10-31T13:45:55;33.75;;;10.93;;
17991;SDS011;9121;50.926;5.340;2022-10-31T13:48:36;26.05;;;10.60;;
17991;SDS011;9121;50.926;5.340;2022-10-31T13:51:08;25.35;;;10.93;;
17991;SDS011;9121;50.926;5.340;2022-10-31T13:53:41;33.22;;;12.38;;
17991;SDS011;9121;50.926;5.340;2022-10-31T13:56:15;64.07;;;13.32;;
17991;SDS011;9121;50.926;5.340;2022-10-31T14:01:32;33.83;;;12.05;;
17991;SDS011;9121;50.926;5.340;2022-10-31T14:04:02;30.13;;;12.52;;
17991;SDS011;9121;50.926;5.340;2022-10-31T14:06:35;47.47;;;12.60;;
17991;SDS011;9121;50.926;5.340;2022-10-31T14:09:05;27.08;;;11.93;;
17991;SDS011;9121;50.926;5.340;2022-10-31T14:11:43;45.00;;;11.73;;
17991;SDS011;9121;50.926;5.340;2022-10-31T14:14:13;40.78;;;14.63;;
17991;SDS011;9121;50.926;5.340;2022-10-31T14:16:41;30.02;;;12.23;;
17991;SDS011;9121;50.926;5.340;2022-10-31T14:19:13;30.27;;;12.68;;
17991;SDS011;9121;50.926;5.340;2022-10-31T14:21:43;30.80;;;12.45;;
17991;SDS011;9121;50.926;5.340;2022-10-31T14:24:14;28.83;;;12.75;;
17991;SDS011;9121;50.926;5.340;2022-10-31T14:26:58;32.05;;;12.20;;
17991;SDS011;9121;50.926;5.340;2022-10-31T14:29:28;30.40;;;11.88;;
17991;SDS011;9121;50.926;5.340;2022-10-31T14:31:57;28.13;;;12.13;;
17991;SDS011;9121;50.926;5.340;2022-10-31T14:34:36;32.88;;;11.85;;
17991;SDS011;9121;50.926;5.340;2022-10-31T14:37:16;54.50;;;12.98;;
17991;SDS011;9121;50.926;5.340;2022-10-31T14:40:05;28.73;;;12.15;;
17991;SDS011;9121;50.926;5.340;2022-10-31T14:45:46;34.92;;;12.32;;
17991;SDS011;9121;50.926;5.340;2022-10-31T14:48:27;24.30;;;12.18;;
17991;SDS011;9121;50.926;5.340;2022-10-31T14:51:08;34.30;;;12.27;;
17991;SDS011;9121;50.926;5.340;2022-10-31T14:53:41;32.63;;;12.43;;
17991;SDS011;9121;50.926;5.340;2022-10-31T14:56:14;35.65;;;12.60;;
17991;SDS011;9121;50.926;5.340;2022-10-31T14:58:48;40.40;;;11.60;;
17991;SDS011;9121;50.926;5.340;2022-10-31T15:01:17;25.88;;;10.52;;
17991;SDS011;9121;50.926;5.340;2022-10-31T15:03:48;31.48;;;12.27;;